Главная страница
METAR-TAF:

METAR-TAF

Аэропорты :

Вардё, Норвегия

широта: 70-21N, долгота: 031-03E, высота над уровнем моря: 12 м

Текущие метеонаблюдения

Эта сводка был подготовлена 45 минут назад, в 16:20 UTC
Ветер 13 Узел от восточно-юго-восточный
Температура 7°C
Влажность 70%
Давление 1027 hPa
Видимость 10 км и более
Рассеянная облачность на высоте 2400 фута

METAR: ENSS 191620Z 11013KT 9999 BKN024 07/02 Q1027 RMK WIND 500FT 09016KT

Время: 19:05 (17:05 UTC)


TAF: отсутствует

Метеонаблюдения и прогнозы для более 4000 аэропортов (сводки METAR и TAF).

Имеющиеся станции представлены на карте желтыми и красными точками.

Чтобы увидеть название станции, наведите на нее мышь.

Затем щелкните, чтобы увидеть метеонаблюдения и метеопрогнозы.

Управление картой: чтобы увеличить масштаб, щелкните зеленые кнопки с черным крестиком; чтобы уменьшить масштаб, щелкните зеленую кнопку с тире; для просмотра соседних карт щелкайте зеленые стрелки.


METAR-TAF: